sensor_id;sensor_type;location;lat;lon;timestamp;temperature;humidity
23259;DHT22;11798;51.528;7.240;2023-07-31T00:01:43;15.90;99.90
23259;DHT22;11798;51.528;7.240;2023-07-31T00:04:09;15.90;99.90
23259;DHT22;11798;51.528;7.240;2023-07-31T00:06:34;16.00;99.90
23259;DHT22;11798;51.528;7.240;2023-07-31T00:09:00;16.00;99.90
23259;DHT22;11798;51.528;7.240;2023-07-31T00:11:26;16.00;99.90
23259;DHT22;11798;51.528;7.240;2023-07-31T00:13:53;16.00;99.90
23259;DHT22;11798;51.528;7.240;2023-07-31T00:16:18;16.00;99.90
23259;DHT22;11798;51.528;7.240;2023-07-31T00:18:44;15.90;99.90
23259;DHT22;11798;51.528;7.240;2023-07-31T00:21:10;16.00;99.90
23259;DHT22;11798;51.528;7.240;2023-07-31T00:23:35;16.00;99.90
23259;DHT22;11798;51.528;7.240;2023-07-31T00:26:01;16.00;99.90
23259;DHT22;11798;51.528;7.240;2023-07-31T00:28:26;16.00;99.90
23259;DHT22;11798;51.528;7.240;2023-07-31T00:30:52;16.00;99.90
23259;DHT22;11798;51.528;7.240;2023-07-31T00:33:18;16.00;99.90
23259;DHT22;11798;51.528;7.240;2023-07-31T00:35:43;16.00;99.90
23259;DHT22;11798;51.528;7.240;2023-07-31T00:38:09;16.00;99.90
23259;DHT22;11798;51.528;7.240;2023-07-31T00:40:36;16.00;99.90
23259;DHT22;11798;51.528;7.240;2023-07-31T00:43:02;16.00;99.90
23259;DHT22;11798;51.528;7.240;2023-07-31T00:45:29;16.00;99.90
23259;DHT22;11798;51.528;7.240;2023-07-31T00:47:55;16.00;99.90
23259;DHT22;11798;51.528;7.240;2023-07-31T00:50:24;16.00;99.90
23259;DHT22;11798;51.528;7.240;2023-07-31T00:52:50;16.00;99.90
23259;DHT22;11798;51.528;7.240;2023-07-31T00:55:16;16.00;99.90
23259;DHT22;11798;51.528;7.240;2023-07-31T00:57:42;16.00;99.90
23259;DHT22;11798;51.528;7.240;2023-07-31T01:00:09;16.00;99.90
23259;DHT22;11798;51.528;7.240;2023-07-31T01:02:35;16.00;99.90
23259;DHT22;11798;51.528;7.240;2023-07-31T01:05:02;16.00;99.90
23259;DHT22;11798;51.528;7.240;2023-07-31T01:10:46;16.00;99.90
23259;DHT22;11798;51.528;7.240;2023-07-31T01:13:15;16.00;99.90
23259;DHT22;11798;51.528;7.240;2023-07-31T01:15:40;16.00;99.90
23259;DHT22;11798;51.528;7.240;2023-07-31T01:18:06;16.00;99.90
23259;DHT22;11798;51.528;7.240;2023-07-31T01:20:31;16.00;99.90
23259;DHT22;11798;51.528;7.240;2023-07-31T01:26:11;16.00;99.90
23259;DHT22;11798;51.528;7.240;2023-07-31T01:31:18;16.00;99.90
23259;DHT22;11798;51.528;7.240;2023-07-31T01:33:45;16.00;99.90
23259;DHT22;11798;51.528;7.240;2023-07-31T01:36:11;16.00;99.90
23259;DHT22;11798;51.528;7.240;2023-07-31T01:38:37;16.00;99.90
23259;DHT22;11798;51.528;7.240;2023-07-31T01:41:03;16.00;99.90
23259;DHT22;11798;51.528;7.240;2023-07-31T01:43:28;16.00;99.90
23259;DHT22;11798;51.528;7.240;2023-07-31T01:45:54;16.00;99.90
23259;DHT22;11798;51.528;7.240;2023-07-31T01:48:19;16.00;99.90
23259;DHT22;11798;51.528;7.240;2023-07-31T01:50:45;16.00;99.90
23259;DHT22;11798;51.528;7.240;2023-07-31T01:53:10;16.00;99.90
23259;DHT22;11798;51.528;7.240;2023-07-31T01:55:37;16.00;99.90
23259;DHT22;11798;51.528;7.240;2023-07-31T01:58:03;16.00;99.90
23259;DHT22;11798;51.528;7.240;2023-07-31T02:00:28;16.00;99.90
23259;DHT22;11798;51.528;7.240;2023-07-31T02:02:54;16.00;99.90
23259;DHT22;11798;51.528;7.240;2023-07-31T02:05:19;16.00;99.90
23259;DHT22;11798;51.528;7.240;2023-07-31T02:07:45;16.00;99.90
23259;DHT22;11798;51.528;7.240;2023-07-31T02:10:11;16.00;99.90
23259;DHT22;11798;51.528;7.240;2023-07-31T02:12:36;16.00;99.90
23259;DHT22;11798;51.528;7.240;2023-07-31T02:15:02;16.00;99.90
23259;DHT22;11798;51.528;7.240;2023-07-31T02:17:28;15.90;99.90
23259;DHT22;11798;51.528;7.240;2023-07-31T02:19:54;15.90;99.90
23259;DHT22;11798;51.528;7.240;2023-07-31T02:22:20;15.90;99.90
23259;DHT22;11798;51.528;7.240;2023-07-31T02:24:46;15.90;99.90
23259;DHT22;11798;51.528;7.240;2023-07-31T02:27:11;15.90;99.90
23259;DHT22;11798;51.528;7.240;2023-07-31T02:29:37;15.90;99.90
23259;DHT22;11798;51.528;7.240;2023-07-31T02:32:03;15.90;99.90
23259;DHT22;11798;51.528;7.240;2023-07-31T02:34:29;15.90;99.90
23259;DHT22;11798;51.528;7.240;2023-07-31T02:36:54;16.00;99.90
23259;DHT22;11798;51.528;7.240;2023-07-31T02:39:20;15.90;99.90
23259;DHT22;11798;51.528;7.240;2023-07-31T02:41:46;15.90;99.90
23259;DHT22;11798;51.528;7.240;2023-07-31T02:44:11;16.00;99.90
23259;DHT22;11798;51.528;7.240;2023-07-31T02:46:39;16.00;99.90
23259;DHT22;11798;51.528;7.240;2023-07-31T02:49:05;15.90;99.90
23259;DHT22;11798;51.528;7.240;2023-07-31T02:51:31;16.00;99.90
23259;DHT22;11798;51.528;7.240;2023-07-31T02:53:56;15.90;99.90
23259;DHT22;11798;51.528;7.240;2023-07-31T02:56:22;15.90;99.90
23259;DHT22;11798;51.528;7.240;2023-07-31T02:58:47;15.90;99.90
23259;DHT22;11798;51.528;7.240;2023-07-31T03:01:13;15.90;99.90
23259;DHT22;11798;51.528;7.240;2023-07-31T03:03:41;15.90;99.90
23259;DHT22;11798;51.528;7.240;2023-07-31T03:06:07;15.90;99.90
23259;DHT22;11798;51.528;7.240;2023-07-31T03:08:32;15.90;99.90
23259;DHT22;11798;51.528;7.240;2023-07-31T03:10:58;15.90;99.90
23259;DHT22;11798;51.528;7.240;2023-07-31T03:13:23;15.90;99.90
23259;DHT22;11798;51.528;7.240;2023-07-31T03:15:49;15.90;99.90
23259;DHT22;11798;51.528;7.240;2023-07-31T03:18:15;15.90;99.90
23259;DHT22;11798;51.528;7.240;2023-07-31T03:20:43;15.90;99.90
23259;DHT22;11798;51.528;7.240;2023-07-31T03:23:09;15.90;99.90
23259;DHT22;11798;51.528;7.240;2023-07-31T03:25:35;15.90;99.90
23259;DHT22;11798;51.528;7.240;2023-07-31T03:28:00;15.90;99.90
23259;DHT22;11798;51.528;7.240;2023-07-31T03:30:26;15.90;99.90
23259;DHT22;11798;51.528;7.240;2023-07-31T03:32:52;15.90;99.90
23259;DHT22;11798;51.528;7.240;2023-07-31T03:35:17;15.90;99.90
23259;DHT22;11798;51.528;7.240;2023-07-31T03:37:43;15.90;99.90
23259;DHT22;11798;51.528;7.240;2023-07-31T03:40:09;15.90;99.90
23259;DHT22;11798;51.528;7.240;2023-07-31T03:42:35;15.90;99.90
23259;DHT22;11798;51.528;7.240;2023-07-31T03:45:00;15.90;99.90
23259;DHT22;11798;51.528;7.240;2023-07-31T03:47:26;15.90;99.90
23259;DHT22;11798;51.528;7.240;2023-07-31T03:49:52;16.00;99.90
23259;DHT22;11798;51.528;7.240;2023-07-31T03:52:17;16.00;99.90
23259;DHT22;11798;51.528;7.240;2023-07-31T03:54:43;16.00;99.90
23259;DHT22;11798;51.528;7.240;2023-07-31T03:57:10;16.00;99.90
23259;DHT22;11798;51.528;7.240;2023-07-31T03:59:36;16.00;99.90
23259;DHT22;11798;51.528;7.240;2023-07-31T04:02:04;16.00;99.90
23259;DHT22;11798;51.528;7.240;2023-07-31T04:04:29;16.00;99.90
23259;DHT22;11798;51.528;7.240;2023-07-31T04:06:55;16.00;99.90
23259;DHT22;11798;51.528;7.240;2023-07-31T04:09:20;16.00;99.90
23259;DHT22;11798;51.528;7.240;2023-07-31T04:11:46;16.00;99.90
23259;DHT22;11798;51.528;7.240;2023-07-31T04:14:11;16.10;99.90
23259;DHT22;11798;51.528;7.240;2023-07-31T04:16:37;16.10;99.90
23259;DHT22;11798;51.528;7.240;2023-07-31T04:19:03;16.10;99.90
23259;DHT22;11798;51.528;7.240;2023-07-31T04:21:29;16.10;99.90
23259;DHT22;11798;51.528;7.240;2023-07-31T04:23:55;16.10;99.90
23259;DHT22;11798;51.528;7.240;2023-07-31T04:26:21;16.10;99.90
23259;DHT22;11798;51.528;7.240;2023-07-31T04:28:47;16.10;99.90
23259;DHT22;11798;51.528;7.240;2023-07-31T04:31:12;16.10;99.90
23259;DHT22;11798;51.528;7.240;2023-07-31T04:33:38;16.20;99.90
23259;DHT22;11798;51.528;7.240;2023-07-31T04:36:04;16.20;99.90
23259;DHT22;11798;51.528;7.240;2023-07-31T04:38:30;16.30;99.90
23259;DHT22;11798;51.528;7.240;2023-07-31T04:40:55;16.20;99.90
23259;DHT22;11798;51.528;7.240;2023-07-31T04:43:21;16.30;99.90
23259;DHT22;11798;51.528;7.240;2023-07-31T04:45:47;16.30;99.90
23259;DHT22;11798;51.528;7.240;2023-07-31T04:48:13;16.30;99.90
23259;DHT22;11798;51.528;7.240;2023-07-31T04:50:39;16.30;99.90
23259;DHT22;11798;51.528;7.240;2023-07-31T04:53:05;16.30;99.90
23259;DHT22;11798;51.528;7.240;2023-07-31T04:55:30;16.40;99.90
23259;DHT22;11798;51.528;7.240;2023-07-31T04:57:57;16.40;99.90
23259;DHT22;11798;51.528;7.240;2023-07-31T05:00:23;16.40;99.90
23259;DHT22;11798;51.528;7.240;2023-07-31T05:02:48;16.40;99.90
23259;DHT22;11798;51.528;7.240;2023-07-31T05:05:14;16.40;99.90
23259;DHT22;11798;51.528;7.240;2023-07-31T05:07:39;16.40;99.90
23259;DHT22;11798;51.528;7.240;2023-07-31T05:10:05;16.40;99.90
23259;DHT22;11798;51.528;7.240;2023-07-31T05:12:31;16.40;99.90
23259;DHT22;11798;51.528;7.240;2023-07-31T05:14:57;16.40;99.90
23259;DHT22;11798;51.528;7.240;2023-07-31T05:17:22;16.40;99.90
23259;DHT22;11798;51.528;7.240;2023-07-31T05:19:48;16.40;99.90
23259;DHT22;11798;51.528;7.240;2023-07-31T05:22:13;16.50;99.90
23259;DHT22;11798;51.528;7.240;2023-07-31T05:24:39;16.50;99.90
23259;DHT22;11798;51.528;7.240;2023-07-31T05:27:05;16.50;99.90
23259;DHT22;11798;51.528;7.240;2023-07-31T05:29:30;16.50;99.90
23259;DHT22;11798;51.528;7.240;2023-07-31T05:31:56;16.50;99.90
23259;DHT22;11798;51.528;7.240;2023-07-31T05:34:22;16.50;99.90
23259;DHT22;11798;51.528;7.240;2023-07-31T05:36:47;16.50;99.90
23259;DHT22;11798;51.528;7.240;2023-07-31T05:39:13;16.50;99.90
23259;DHT22;11798;51.528;7.240;2023-07-31T05:41:39;16.50;99.90
23259;DHT22;11798;51.528;7.240;2023-07-31T05:44:04;16.60;99.90
23259;DHT22;11798;51.528;7.240;2023-07-31T05:46:30;16.50;99.90
23259;DHT22;11798;51.528;7.240;2023-07-31T05:48:56;16.50;99.90
23259;DHT22;11798;51.528;7.240;2023-07-31T05:51:22;16.50;99.90
23259;DHT22;11798;51.528;7.240;2023-07-31T05:53:47;16.50;99.90
23259;DHT22;11798;51.528;7.240;2023-07-31T05:56:13;16.60;99.90
23259;DHT22;11798;51.528;7.240;2023-07-31T05:58:39;16.60;99.90
23259;DHT22;11798;51.528;7.240;2023-07-31T06:01:04;16.50;99.90
23259;DHT22;11798;51.528;7.240;2023-07-31T06:03:30;16.50;99.90
23259;DHT22;11798;51.528;7.240;2023-07-31T06:05:55;16.50;99.90
23259;DHT22;11798;51.528;7.240;2023-07-31T06:08:21;16.50;99.90
23259;DHT22;11798;51.528;7.240;2023-07-31T06:10:47;16.50;99.90
23259;DHT22;11798;51.528;7.240;2023-07-31T06:13:12;16.50;99.90
23259;DHT22;11798;51.528;7.240;2023-07-31T06:15:38;16.60;99.90
23259;DHT22;11798;51.528;7.240;2023-07-31T06:18:04;16.60;99.90
23259;DHT22;11798;51.528;7.240;2023-07-31T06:20:33;16.60;99.90
23259;DHT22;11798;51.528;7.240;2023-07-31T06:22:59;16.50;99.90
23259;DHT22;11798;51.528;7.240;2023-07-31T06:25:25;16.60;99.90
23259;DHT22;11798;51.528;7.240;2023-07-31T06:27:50;16.60;99.90
23259;DHT22;11798;51.528;7.240;2023-07-31T06:30:16;16.60;99.90
23259;DHT22;11798;51.528;7.240;2023-07-31T06:32:42;16.60;99.90
23259;DHT22;11798;51.528;7.240;2023-07-31T06:35:08;16.60;99.90
23259;DHT22;11798;51.528;7.240;2023-07-31T06:37:34;16.60;99.90
23259;DHT22;11798;51.528;7.240;2023-07-31T06:39:59;16.70;99.90
23259;DHT22;11798;51.528;7.240;2023-07-31T06:42:25;16.70;99.90
23259;DHT22;11798;51.528;7.240;2023-07-31T06:44:50;16.70;99.90
23259;DHT22;11798;51.528;7.240;2023-07-31T06:47:16;16.70;99.90
23259;DHT22;11798;51.528;7.240;2023-07-31T06:49:42;16.70;99.90
23259;DHT22;11798;51.528;7.240;2023-07-31T06:52:07;16.80;99.90
23259;DHT22;11798;51.528;7.240;2023-07-31T06:54:33;16.80;99.90
23259;DHT22;11798;51.528;7.240;2023-07-31T06:56:58;16.80;99.90
23259;DHT22;11798;51.528;7.240;2023-07-31T06:59:24;16.70;99.90
23259;DHT22;11798;51.528;7.240;2023-07-31T07:01:49;16.70;99.90
23259;DHT22;11798;51.528;7.240;2023-07-31T07:04:15;16.70;99.90
23259;DHT22;11798;51.528;7.240;2023-07-31T07:06:41;16.70;99.90
23259;DHT22;11798;51.528;7.240;2023-07-31T07:09:07;16.80;99.90
23259;DHT22;11798;51.528;7.240;2023-07-31T07:11:33;16.80;99.90
23259;DHT22;11798;51.528;7.240;2023-07-31T07:13:59;16.80;99.90
23259;DHT22;11798;51.528;7.240;2023-07-31T07:16:25;16.80;99.90
23259;DHT22;11798;51.528;7.240;2023-07-31T07:18:51;16.80;99.90
23259;DHT22;11798;51.528;7.240;2023-07-31T07:21:17;16.90;99.90
23259;DHT22;11798;51.528;7.240;2023-07-31T07:23:43;16.90;99.90
23259;DHT22;11798;51.528;7.240;2023-07-31T07:26:08;16.90;99.90
23259;DHT22;11798;51.528;7.240;2023-07-31T07:28:34;16.90;99.90
23259;DHT22;11798;51.528;7.240;2023-07-31T07:31:00;16.90;99.90
23259;DHT22;11798;51.528;7.240;2023-07-31T07:33:25;16.90;99.90
23259;DHT22;11798;51.528;7.240;2023-07-31T07:35:51;16.90;99.90
23259;DHT22;11798;51.528;7.240;2023-07-31T07:38:16;16.90;99.90
23259;DHT22;11798;51.528;7.240;2023-07-31T07:40:44;16.90;99.90
23259;DHT22;11798;51.528;7.240;2023-07-31T07:43:12;17.00;99.90
23259;DHT22;11798;51.528;7.240;2023-07-31T07:45:37;17.00;99.90
23259;DHT22;11798;51.528;7.240;2023-07-31T07:48:03;17.00;99.90
23259;DHT22;11798;51.528;7.240;2023-07-31T07:50:28;17.00;99.90
23259;DHT22;11798;51.528;7.240;2023-07-31T07:52:54;17.00;99.90
23259;DHT22;11798;51.528;7.240;2023-07-31T07:55:19;16.90;99.90
23259;DHT22;11798;51.528;7.240;2023-07-31T07:57:45;17.00;99.90
23259;DHT22;11798;51.528;7.240;2023-07-31T08:00:12;16.90;99.90
23259;DHT22;11798;51.528;7.240;2023-07-31T08:02:38;16.90;99.90
23259;DHT22;11798;51.528;7.240;2023-07-31T08:05:04;16.90;99.90
23259;DHT22;11798;51.528;7.240;2023-07-31T08:07:29;17.00;99.90
23259;DHT22;11798;51.528;7.240;2023-07-31T08:09:55;16.90;99.90
23259;DHT22;11798;51.528;7.240;2023-07-31T08:12:20;16.90;99.90
23259;DHT22;11798;51.528;7.240;2023-07-31T08:14:46;16.90;99.90
23259;DHT22;11798;51.528;7.240;2023-07-31T08:17:12;16.90;99.90
23259;DHT22;11798;51.528;7.240;2023-07-31T08:19:37;16.90;99.90
23259;DHT22;11798;51.528;7.240;2023-07-31T08:22:03;16.80;99.90
23259;DHT22;11798;51.528;7.240;2023-07-31T08:24:28;16.70;99.90
23259;DHT22;11798;51.528;7.240;2023-07-31T08:26:54;16.70;99.90
23259;DHT22;11798;51.528;7.240;2023-07-31T08:29:19;16.70;99.90
23259;DHT22;11798;51.528;7.240;2023-07-31T08:31:45;16.70;99.90
23259;DHT22;11798;51.528;7.240;2023-07-31T08:34:11;16.80;99.90
23259;DHT22;11798;51.528;7.240;2023-07-31T08:36:36;16.90;99.90
23259;DHT22;11798;51.528;7.240;2023-07-31T08:39:02;16.90;99.90
23259;DHT22;11798;51.528;7.240;2023-07-31T08:41:29;16.80;99.90
23259;DHT22;11798;51.528;7.240;2023-07-31T08:43:55;16.80;99.90
23259;DHT22;11798;51.528;7.240;2023-07-31T08:46:22;16.80;99.90
23259;DHT22;11798;51.528;7.240;2023-07-31T08:48:48;16.90;99.90
23259;DHT22;11798;51.528;7.240;2023-07-31T08:51:15;16.80;99.90
23259;DHT22;11798;51.528;7.240;2023-07-31T08:53:41;16.90;99.90
23259;DHT22;11798;51.528;7.240;2023-07-31T08:56:07;16.90;99.90
23259;DHT22;11798;51.528;7.240;2023-07-31T08:58:33;16.90;99.90
23259;DHT22;11798;51.528;7.240;2023-07-31T09:01:02;16.90;99.90
23259;DHT22;11798;51.528;7.240;2023-07-31T09:03:29;17.00;99.90
23259;DHT22;11798;51.528;7.240;2023-07-31T09:05:58;17.10;99.90
23259;DHT22;11798;51.528;7.240;2023-07-31T09:08:26;17.00;99.90
23259;DHT22;11798;51.528;7.240;2023-07-31T09:10:59;17.10;99.90
23259;DHT22;11798;51.528;7.240;2023-07-31T09:13:25;17.10;99.90
23259;DHT22;11798;51.528;7.240;2023-07-31T09:15:52;17.10;99.90
23259;DHT22;11798;51.528;7.240;2023-07-31T09:18:18;17.10;99.90
23259;DHT22;11798;51.528;7.240;2023-07-31T09:21:00;17.10;99.90
23259;DHT22;11798;51.528;7.240;2023-07-31T09:23:43;17.10;99.90
23259;DHT22;11798;51.528;7.240;2023-07-31T09:26:09;17.10;99.90
23259;DHT22;11798;51.528;7.240;2023-07-31T09:28:34;17.10;99.90
23259;DHT22;11798;51.528;7.240;2023-07-31T09:31:00;17.00;99.90
23259;DHT22;11798;51.528;7.240;2023-07-31T09:33:25;16.90;99.90
23259;DHT22;11798;51.528;7.240;2023-07-31T09:35:51;17.00;99.90
23259;DHT22;11798;51.528;7.240;2023-07-31T09:38:17;17.00;99.90
23259;DHT22;11798;51.528;7.240;2023-07-31T09:40:49;16.90;99.90
23259;DHT22;11798;51.528;7.240;2023-07-31T09:43:20;17.00;99.90
23259;DHT22;11798;51.528;7.240;2023-07-31T09:45:46;17.10;99.90
23259;DHT22;11798;51.528;7.240;2023-07-31T09:48:17;17.10;99.90
23259;DHT22;11798;51.528;7.240;2023-07-31T09:50:45;17.10;99.90
23259;DHT22;11798;51.528;7.240;2023-07-31T09:53:11;17.20;99.90
23259;DHT22;11798;51.528;7.240;2023-07-31T09:55:38;17.20;99.90
23259;DHT22;11798;51.528;7.240;2023-07-31T09:58:06;17.30;99.90
23259;DHT22;11798;51.528;7.240;2023-07-31T10:00:32;17.20;99.90
23259;DHT22;11798;51.528;7.240;2023-07-31T10:03:04;17.10;99.90
23259;DHT22;11798;51.528;7.240;2023-07-31T10:05:50;17.20;99.90
23259;DHT22;11798;51.528;7.240;2023-07-31T10:08:18;17.20;99.90
23259;DHT22;11798;51.528;7.240;2023-07-31T10:10:46;17.30;99.90
23259;DHT22;11798;51.528;7.240;2023-07-31T10:13:14;17.30;99.90
23259;DHT22;11798;51.528;7.240;2023-07-31T10:15:40;17.40;99.90
23259;DHT22;11798;51.528;7.240;2023-07-31T10:18:07;17.40;99.90
23259;DHT22;11798;51.528;7.240;2023-07-31T10:20:33;17.40;99.90
23259;DHT22;11798;51.528;7.240;2023-07-31T10:22:59;17.30;99.90
23259;DHT22;11798;51.528;7.240;2023-07-31T10:25:26;17.40;99.90
23259;DHT22;11798;51.528;7.240;2023-07-31T10:27:53;17.40;99.90
23259;DHT22;11798;51.528;7.240;2023-07-31T10:30:28;17.50;99.90
23259;DHT22;11798;51.528;7.240;2023-07-31T10:32:55;17.50;99.90
23259;DHT22;11798;51.528;7.240;2023-07-31T10:35:21;17.60;99.90
23259;DHT22;11798;51.528;7.240;2023-07-31T10:37:50;17.50;99.90
23259;DHT22;11798;51.528;7.240;2023-07-31T10:40:16;17.30;99.90
23259;DHT22;11798;51.528;7.240;2023-07-31T10:42:45;17.40;99.90
23259;DHT22;11798;51.528;7.240;2023-07-31T10:45:12;17.40;99.90
23259;DHT22;11798;51.528;7.240;2023-07-31T10:47:45;17.40;99.90
23259;DHT22;11798;51.528;7.240;2023-07-31T10:50:20;17.40;99.90
23259;DHT22;11798;51.528;7.240;2023-07-31T10:52:48;17.30;99.90
23259;DHT22;11798;51.528;7.240;2023-07-31T10:55:40;17.20;99.90
23259;DHT22;11798;51.528;7.240;2023-07-31T10:58:13;17.30;99.90
23259;DHT22;11798;51.528;7.240;2023-07-31T11:00:43;17.20;99.90
23259;DHT22;11798;51.528;7.240;2023-07-31T11:03:15;17.20;99.90
23259;DHT22;11798;51.528;7.240;2023-07-31T11:10:39;17.20;99.90
23259;DHT22;11798;51.528;7.240;2023-07-31T11:13:05;17.10;99.90
23259;DHT22;11798;51.528;7.240;2023-07-31T11:15:31;17.10;99.90
23259;DHT22;11798;51.528;7.240;2023-07-31T11:17:56;17.20;99.90
23259;DHT22;11798;51.528;7.240;2023-07-31T11:20:24;17.20;99.90
23259;DHT22;11798;51.528;7.240;2023-07-31T11:22:49;17.30;99.90
23259;DHT22;11798;51.528;7.240;2023-07-31T11:25:16;17.40;99.90
23259;DHT22;11798;51.528;7.240;2023-07-31T11:27:41;17.40;99.90
23259;DHT22;11798;51.528;7.240;2023-07-31T11:30:09;17.30;99.90
23259;DHT22;11798;51.528;7.240;2023-07-31T11:32:37;17.40;99.90
23259;DHT22;11798;51.528;7.240;2023-07-31T11:35:03;17.40;99.90
23259;DHT22;11798;51.528;7.240;2023-07-31T11:37:41;17.40;99.90
23259;DHT22;11798;51.528;7.240;2023-07-31T11:40:07;17.50;99.90
23259;DHT22;11798;51.528;7.240;2023-07-31T11:42:35;17.40;99.90
23259;DHT22;11798;51.528;7.240;2023-07-31T11:45:04;17.60;99.90
23259;DHT22;11798;51.528;7.240;2023-07-31T11:47:32;17.60;99.90
23259;DHT22;11798;51.528;7.240;2023-07-31T11:50:00;17.60;99.90
23259;DHT22;11798;51.528;7.240;2023-07-31T11:52:26;17.80;99.90
23259;DHT22;11798;51.528;7.240;2023-07-31T11:54:52;17.90;99.90
23259;DHT22;11798;51.528;7.240;2023-07-31T11:57:19;18.00;99.90
23259;DHT22;11798;51.528;7.240;2023-07-31T11:59:45;18.00;99.90
23259;DHT22;11798;51.528;7.240;2023-07-31T12:02:11;18.10;99.90
23259;DHT22;11798;51.528;7.240;2023-07-31T12:04:36;18.20;99.90
23259;DHT22;11798;51.528;7.240;2023-07-31T12:07:03;18.40;99.90
23259;DHT22;11798;51.528;7.240;2023-07-31T12:09:29;18.40;99.90
23259;DHT22;11798;51.528;7.240;2023-07-31T12:11:55;18.50;99.90
23259;DHT22;11798;51.528;7.240;2023-07-31T12:14:21;18.50;99.90
23259;DHT22;11798;51.528;7.240;2023-07-31T12:16:47;18.60;99.90
23259;DHT22;11798;51.528;7.240;2023-07-31T12:19:13;18.50;99.90
23259;DHT22;11798;51.528;7.240;2023-07-31T12:21:39;18.50;99.90
23259;DHT22;11798;51.528;7.240;2023-07-31T12:24:04;18.40;99.90
23259;DHT22;11798;51.528;7.240;2023-07-31T12:26:36;18.30;99.90
23259;DHT22;11798;51.528;7.240;2023-07-31T12:29:01;18.20;99.90
23259;DHT22;11798;51.528;7.240;2023-07-31T12:31:28;18.20;99.90
23259;DHT22;11798;51.528;7.240;2023-07-31T12:33:55;18.00;99.90
23259;DHT22;11798;51.528;7.240;2023-07-31T12:36:23;18.10;99.90
23259;DHT22;11798;51.528;7.240;2023-07-31T12:38:50;18.10;99.90
23259;DHT22;11798;51.528;7.240;2023-07-31T12:41:16;18.10;99.90
23259;DHT22;11798;51.528;7.240;2023-07-31T12:43:43;18.00;99.90
23259;DHT22;11798;51.528;7.240;2023-07-31T12:46:09;18.00;99.90
23259;DHT22;11798;51.528;7.240;2023-07-31T12:48:36;17.90;99.90
23259;DHT22;11798;51.528;7.240;2023-07-31T12:51:02;17.90;99.90
23259;DHT22;11798;51.528;7.240;2023-07-31T12:53:28;17.90;99.90
23259;DHT22;11798;51.528;7.240;2023-07-31T12:55:55;18.00;99.90
23259;DHT22;11798;51.528;7.240;2023-07-31T12:58:20;18.00;99.90
23259;DHT22;11798;51.528;7.240;2023-07-31T13:00:46;18.10;99.90
23259;DHT22;11798;51.528;7.240;2023-07-31T13:03:12;18.10;99.90
23259;DHT22;11798;51.528;7.240;2023-07-31T13:05:37;18.20;99.90
23259;DHT22;11798;51.528;7.240;2023-07-31T13:08:03;18.30;99.90
23259;DHT22;11798;51.528;7.240;2023-07-31T13:10:28;18.20;99.90
23259;DHT22;11798;51.528;7.240;2023-07-31T13:12:55;18.20;99.90
23259;DHT22;11798;51.528;7.240;2023-07-31T13:15:21;18.30;99.90
23259;DHT22;11798;51.528;7.240;2023-07-31T13:17:47;18.30;99.90
23259;DHT22;11798;51.528;7.240;2023-07-31T13:20:12;18.30;99.90
23259;DHT22;11798;51.528;7.240;2023-07-31T13:22:38;18.20;99.90
23259;DHT22;11798;51.528;7.240;2023-07-31T13:25:04;18.40;99.90
23259;DHT22;11798;51.528;7.240;2023-07-31T13:27:30;18.40;99.90
23259;DHT22;11798;51.528;7.240;2023-07-31T13:29:56;18.40;99.90
23259;DHT22;11798;51.528;7.240;2023-07-31T13:32:21;18.30;99.90
23259;DHT22;11798;51.528;7.240;2023-07-31T13:34:48;18.50;99.90
23259;DHT22;11798;51.528;7.240;2023-07-31T13:37:14;18.50;99.90
23259;DHT22;11798;51.528;7.240;2023-07-31T13:39:40;18.50;99.90
23259;DHT22;11798;51.528;7.240;2023-07-31T13:42:07;18.60;99.90
23259;DHT22;11798;51.528;7.240;2023-07-31T13:44:36;18.60;99.90
23259;DHT22;11798;51.528;7.240;2023-07-31T13:47:02;18.50;99.90
23259;DHT22;11798;51.528;7.240;2023-07-31T13:49:29;18.60;99.90
23259;DHT22;11798;51.528;7.240;2023-07-31T13:51:55;18.60;99.90
23259;DHT22;11798;51.528;7.240;2023-07-31T13:54:22;18.60;99.90
23259;DHT22;11798;51.528;7.240;2023-07-31T13:56:47;18.50;99.90
23259;DHT22;11798;51.528;7.240;2023-07-31T13:59:13;18.60;99.90
23259;DHT22;11798;51.528;7.240;2023-07-31T14:01:40;18.60;99.90
23259;DHT22;11798;51.528;7.240;2023-07-31T14:04:06;18.60;99.90
23259;DHT22;11798;51.528;7.240;2023-07-31T14:06:31;18.70;99.90
23259;DHT22;11798;51.528;7.240;2023-07-31T14:08:57;18.80;99.90
23259;DHT22;11798;51.528;7.240;2023-07-31T14:11:22;18.90;99.90
23259;DHT22;11798;51.528;7.240;2023-07-31T14:13:50;19.00;99.90
23259;DHT22;11798;51.528;7.240;2023-07-31T14:16:16;19.00;99.90
23259;DHT22;11798;51.528;7.240;2023-07-31T14:18:42;18.90;99.90
23259;DHT22;11798;51.528;7.240;2023-07-31T14:21:07;19.00;99.90
23259;DHT22;11798;51.528;7.240;2023-07-31T14:23:34;18.90;99.90
23259;DHT22;11798;51.528;7.240;2023-07-31T14:25:59;19.10;99.90
23259;DHT22;11798;51.528;7.240;2023-07-31T14:28:25;19.30;99.90
23259;DHT22;11798;51.528;7.240;2023-07-31T14:30:50;19.50;99.90
23259;DHT22;11798;51.528;7.240;2023-07-31T14:33:16;19.50;99.90
23259;DHT22;11798;51.528;7.240;2023-07-31T14:35:42;19.50;99.90
23259;DHT22;11798;51.528;7.240;2023-07-31T14:38:07;19.50;99.90
23259;DHT22;11798;51.528;7.240;2023-07-31T14:40:33;19.40;99.90
23259;DHT22;11798;51.528;7.240;2023-07-31T14:42:59;19.40;99.90
23259;DHT22;11798;51.528;7.240;2023-07-31T14:45:24;19.30;99.90
23259;DHT22;11798;51.528;7.240;2023-07-31T14:47:50;19.30;99.90
23259;DHT22;11798;51.528;7.240;2023-07-31T14:50:16;19.20;99.90
23259;DHT22;11798;51.528;7.240;2023-07-31T14:52:41;19.20;99.90
23259;DHT22;11798;51.528;7.240;2023-07-31T14:55:07;19.10;99.90
23259;DHT22;11798;51.528;7.240;2023-07-31T14:57:34;19.10;99.90
23259;DHT22;11798;51.528;7.240;2023-07-31T15:00:00;19.00;99.90
23259;DHT22;11798;51.528;7.240;2023-07-31T15:02:26;19.00;99.90
23259;DHT22;11798;51.528;7.240;2023-07-31T15:04:52;18.90;99.90
23259;DHT22;11798;51.528;7.240;2023-07-31T15:07:18;19.00;99.90
23259;DHT22;11798;51.528;7.240;2023-07-31T15:09:44;19.00;99.90
23259;DHT22;11798;51.528;7.240;2023-07-31T15:12:09;18.80;99.90
23259;DHT22;11798;51.528;7.240;2023-07-31T15:14:35;18.80;99.90
23259;DHT22;11798;51.528;7.240;2023-07-31T15:17:01;18.70;99.90
23259;DHT22;11798;51.528;7.240;2023-07-31T15:19:26;18.70;99.90
23259;DHT22;11798;51.528;7.240;2023-07-31T15:21:52;18.70;99.90
23259;DHT22;11798;51.528;7.240;2023-07-31T15:24:18;18.70;99.90
23259;DHT22;11798;51.528;7.240;2023-07-31T15:26:43;18.70;99.90
23259;DHT22;11798;51.528;7.240;2023-07-31T15:29:09;18.60;99.90
23259;DHT22;11798;51.528;7.240;2023-07-31T15:31:39;18.50;99.90
23259;DHT22;11798;51.528;7.240;2023-07-31T15:34:05;18.60;99.90
23259;DHT22;11798;51.528;7.240;2023-07-31T15:36:31;18.40;99.90
23259;DHT22;11798;51.528;7.240;2023-07-31T15:38:57;18.50;99.90